Time;durP1;ratioP1;P1;durP2;ratioP2;P2;SDS_P1;SDS_P2;PMS_P1;PMS_P2;Temp;Humidity;BMP_temperature;BMP_pressure;BME280_temperature;BME280_humidity;BME280_pressure;Samples;Min_cycle;Max_cycle;Signal;HPM_P1;HPM_P2
2021/12/06 00:04:17;;;;;;;83.65;31.40;;;0.50;99.90;;;;;;10422880;28;20111;-65
2021/12/06 00:09:25;;;;;;;84.05;30.13;;;0.50;99.90;;;;;;10422545;28;20049;-65
2021/12/06 00:14:35;;;;;;;80.50;31.50;;;0.50;99.90;;;;;;10423654;28;20041;-65
2021/12/06 00:19:42;;;;;;;83.07;29.80;;;0.50;99.90;;;;;;10404655;28;20292;-65
2021/12/06 00:24:47;;;;;;;83.70;32.30;;;0.40;99.90;;;;;;10422250;28;20042;-65
2021/12/06 00:29:53;;;;;;;82.50;31.50;;;0.50;99.90;;;;;;10421646;28;20061;-65
2021/12/06 00:34:58;;;;;;;95.38;32.22;;;0.50;99.90;;;;;;10420724;28;20053;-66
2021/12/06 00:40:09;;;;;;;82.13;32.05;;;0.50;99.90;;;;;;10421488;28;20068;-66
2021/12/06 00:45:13;;;;;;;;;;;0.50;99.90;;;;;;10402994;28;20054;-66
2021/12/06 00:50:21;;;;;;;78.15;29.30;;;0.50;99.90;;;;;;10419949;28;19921;-67
2021/12/06 00:55:26;;;;;;;87.93;33.05;;;0.50;99.90;;;;;;10401865;28;20486;-66
2021/12/06 01:00:42;;;;;;;79.70;28.25;;;0.50;99.90;;;;;;10420321;28;20045;-66
2021/12/06 01:05:48;;;;;;;73.30;29.00;;;0.50;99.90;;;;;;10401774;28;20053;-66
2021/12/06 01:10:54;;;;;;;82.25;29.17;;;0.50;99.90;;;;;;10419231;28;20465;-66
2021/12/06 01:16:02;;;;;;;80.18;29.13;;;0.60;99.90;;;;;;10401598;28;20050;-66
2021/12/06 01:21:22;;;;;;;77.72;28.45;;;0.50;99.90;;;;;;10419435;28;20041;-66
2021/12/06 01:27:05;;;;;;;71.65;28.02;;;0.50;99.90;;;;;;10400896;28;20046;-66
2021/12/06 01:32:24;;;;;;;75.00;28.08;;;0.50;99.90;;;;;;10376593;28;20498;-65
2021/12/06 01:42:53;;;;;;;80.10;27.90;;;0.50;99.90;;;;;;10376134;28;20100;-66
2021/12/06 01:47:58;;;;;;;79.53;30.65;;;0.40;99.90;;;;;;10377584;28;20046;-65
2021/12/06 01:53:04;;;;;;;88.00;35.33;;;0.40;99.90;;;;;;10375323;28;20053;-65
2021/12/06 01:58:09;;;;;;;84.28;30.88;;;0.30;99.90;;;;;;10376810;28;20096;-65
2021/12/06 02:03:14;;;;;;;76.28;28.65;;;0.30;99.90;;;;;;10376065;28;20054;-65
2021/12/06 02:08:19;;;;;;;87.10;31.40;;;0.30;99.90;;;;;;10376214;28;20471;-65
2021/12/06 02:13:25;;;;;;;86.53;29.63;;;0.30;99.90;;;;;;10375803;28;20470;-65
2021/12/06 02:23:42;;;;;;;75.85;27.08;;;0.40;99.90;;;;;;10375099;28;20058;-65
2021/12/06 02:28:48;;;;;;;80.47;27.08;;;0.40;99.90;;;;;;10363001;28;20624;-65
2021/12/06 02:33:56;;;;;;;77.00;27.15;;;0.50;99.90;;;;;;10398127;28;20045;-66
2021/12/06 02:39:04;;;;;;;85.25;27.55;;;0.50;99.90;;;;;;10399843;28;20112;-65
2021/12/06 02:44:09;;;;;;;75.50;25.13;;;0.50;99.90;;;;;;10399114;28;20061;-65
2021/12/06 02:49:14;;;;;;;74.07;21.88;;;0.60;99.90;;;;;;10415907;28;20115;-65
2021/12/06 02:54:22;;;;;;;63.03;22.67;;;0.60;99.90;;;;;;10415353;28;20502;-65
2021/12/06 02:59:27;;;;;;;68.07;23.13;;;0.60;99.90;;;;;;10397918;28;20149;-65
2021/12/06 03:04:33;;;;;;;64.20;23.15;;;0.60;99.90;;;;;;10398023;28;20107;-65
2021/12/06 03:09:40;;;;;;;70.30;23.08;;;0.60;99.90;;;;;;10397281;28;20046;-65
2021/12/06 03:14:50;;;;;;;80.88;24.05;;;0.70;99.90;;;;;;10397672;28;20099;-65
2021/12/06 03:19:59;;;;;;;86.03;24.30;;;0.70;99.90;;;;;;10404004;28;20045;-65
2021/12/06 03:25:11;;;;;;;72.22;22.25;;;0.70;99.90;;;;;;10410713;28;20053;-65
2021/12/06 03:30:16;;;;;;;76.25;21.35;;;0.70;99.90;;;;;;10410844;28;20076;-65
2021/12/06 03:35:22;;;;;;;72.22;21.33;;;0.70;99.90;;;;;;10411087;28;20053;-64
2021/12/06 03:40:32;;;;;;;65.72;21.33;;;0.70;99.90;;;;;;10411259;28;20498;-64
2021/12/06 03:45:37;;;;;;;72.60;20.10;;;0.70;99.90;;;;;;10410339;28;20049;-65
2021/12/06 03:50:42;;;;;;;53.05;17.80;;;0.60;99.90;;;;;;10428294;28;20068;-65
2021/12/06 03:55:48;;;;;;;61.30;19.15;;;0.60;99.90;;;;;;10412116;28;20057;-64
2021/12/06 04:00:54;;;;;;;51.65;17.33;;;0.60;99.90;;;;;;10411169;28;20045;-65
2021/12/06 04:06:00;;;;;;;53.63;18.50;;;0.60;99.90;;;;;;10410065;28;20074;-64
2021/12/06 04:11:08;;;;;;;68.32;20.23;;;0.60;99.90;;;;;;10410024;28;20049;-64
2021/12/06 04:16:14;;;;;;;68.43;21.63;;;0.50;99.90;;;;;;10422202;28;20041;-64
2021/12/06 04:21:21;;;;;;;60.72;19.98;;;0.50;99.90;;;;;;10451201;28;20562;-64
2021/12/06 04:26:27;;;;;;;63.10;21.90;;;0.50;99.90;;;;;;10451411;28;20456;-64
2021/12/06 04:31:35;;;;;;;67.03;22.10;;;0.60;99.90;;;;;;10464870;28;20110;-64
2021/12/06 04:36:44;;;;;;;80.05;23.25;;;0.60;99.90;;;;;;10444301;28;20115;-64
2021/12/06 04:41:51;;;;;;;93.28;24.30;;;0.60;99.90;;;;;;10461758;28;20502;-64
2021/12/06 04:46:57;;;;;;;82.93;22.33;;;0.50;99.90;;;;;;10461846;28;20052;-65
2021/12/06 04:52:05;;;;;;;69.72;21.67;;;0.50;99.90;;;;;;10444221;28;20056;-64
2021/12/06 04:57:30;;;;;;;58.88;19.85;;;0.50;99.90;;;;;;10443672;28;20067;-65
2021/12/06 05:02:37;;;;;;;66.97;18.23;;;0.40;99.90;;;;;;10455184;28;20075;-64
2021/12/06 05:07:48;;;;;;;67.03;20.48;;;0.40;99.90;;;;;;10435979;28;20045;-65
2021/12/06 05:12:55;;;;;;;58.05;18.92;;;0.40;99.90;;;;;;10418619;28;20042;-65
2021/12/06 05:18:03;;;;;;;56.15;17.58;;;0.50;99.90;;;;;;10404378;28;20045;-65
2021/12/06 05:23:11;;;;;;;56.45;18.23;;;0.50;99.90;;;;;;10435392;28;20115;-65
2021/12/06 05:28:17;;;;;;;59.45;20.67;;;0.50;99.90;;;;;;10424110;28;20438;-64
2021/12/06 05:33:30;;;;;;;65.78;20.55;;;0.40;99.90;;;;;;10400956;28;20053;-65
2021/12/06 05:38:36;;;;;;;51.13;19.33;;;0.40;99.90;;;;;;10417943;28;20053;-64
2021/12/06 05:43:41;;;;;;;58.88;19.60;;;0.40;99.90;;;;;;10430447;28;20072;-65
2021/12/06 05:48:46;;;;;;;68.57;21.65;;;0.30;99.90;;;;;;10459242;28;20045;-64
2021/12/06 05:53:50;;;;;;;58.97;21.02;;;0.30;99.90;;;;;;10459283;28;20053;-64
2021/12/06 05:58:55;;;;;;;55.92;19.98;;;0.20;99.90;;;;;;10447769;28;20049;-65
2021/12/06 06:04:01;;;;;;;55.85;18.55;;;0.20;99.90;;;;;;10416927;28;20104;-65
2021/12/06 06:09:07;;;;;;;54.50;17.52;;;0.10;99.90;;;;;;10400011;28;20048;-65
2021/12/06 06:14:12;;;;;;;51.75;17.48;;;0.10;99.90;;;;;;10399381;28;20131;-65
2021/12/06 06:19:21;;;;;;;52.95;16.88;;;0.00;99.90;;;;;;10416301;28;20433;-65
2021/12/06 06:24:26;;;;;;;56.88;18.50;;;0.10;99.90;;;;;;10416599;28;20080;-64
2021/12/06 06:29:31;;;;;;;57.90;19.42;;;0.00;99.90;;;;;;10416337;28;20148;-64
2021/12/06 06:34:36;;;;;;;64.40;20.52;;;0.10;99.90;;;;;;10416067;28;20456;-65
2021/12/06 06:39:41;;;;;;;52.72;18.48;;;0.10;99.90;;;;;;10415915;28;20053;-64
2021/12/06 06:44:46;;;;;;;56.67;20.50;;;0.10;99.90;;;;;;10416141;28;20048;-65
2021/12/06 06:49:51;;;;;;;49.97;19.52;;;0.10;99.90;;;;;;10415354;28;20449;-64
2021/12/06 06:54:59;;;;;;;56.58;20.02;;;0.10;99.90;;;;;;10397840;28;20056;-64
2021/12/06 07:00:16;;;;;;;61.97;21.23;;;0.10;99.90;;;;;;10415388;28;20045;-64
2021/12/06 07:05:23;;;;;;;55.80;19.88;;;0.10;99.90;;;;;;10415017;28;20049;-64
2021/12/06 07:10:28;;;;;;;50.13;17.90;;;0.10;99.90;;;;;;10415858;28;20398;-65
2021/12/06 07:15:35;;;;;;;58.17;20.85;;;0.10;99.90;;;;;;10414940;28;20095;-64
2021/12/06 07:20:40;;;;;;;59.63;20.92;;;0.00;99.90;;;;;;10415178;28;20095;-64
2021/12/06 07:25:45;;;;;;;58.75;21.35;;;0.00;99.90;;;;;;10414396;28;20091;-65
2021/12/06 07:30:50;;;;;;;54.55;20.35;;;0.00;99.90;;;;;;10414191;28;20053;-65
2021/12/06 07:35:55;;;;;;;61.75;20.95;;;0.00;99.90;;;;;;10414840;28;20049;-64
2021/12/06 07:41:00;;;;;;;59.45;21.95;;;0.10;99.90;;;;;;10414223;28;20053;-64
2021/12/06 07:46:06;;;;;;;57.20;22.63;;;0.20;99.90;;;;;;10414582;28;20072;-64
2021/12/06 07:51:11;;;;;;;67.43;25.10;;;0.10;99.90;;;;;;10414623;28;20057;-65
2021/12/06 07:56:16;;;;;;;60.05;22.27;;;0.10;99.90;;;;;;10413944;28;20104;-64
2021/12/06 08:01:22;;;;;;;63.42;23.27;;;0.10;99.90;;;;;;10414604;28;20064;-65
2021/12/06 08:06:28;;;;;;;55.67;18.83;;;0.10;99.90;;;;;;10418960;28;20547;-64
2021/12/06 08:11:33;;;;;;;47.75;19.08;;;0.10;99.90;;;;;;10421391;28;20097;-64
2021/12/06 08:16:43;;;;;;;41.75;17.20;;;-0.10;99.90;;;;;;10404468;28;20478;-64
2021/12/06 08:21:48;;;;;;;44.20;17.73;;;0.00;99.90;;;;;;10422118;28;20072;-64
2021/12/06 08:26:53;;;;;;;50.60;21.20;;;0.00;99.90;;;;;;10421480;28;20060;-65
2021/12/06 08:32:01;;;;;;;49.40;20.80;;;0.00;99.90;;;;;;10421376;28;20060;-65
2021/12/06 08:37:08;;;;;;;52.17;20.98;;;0.10;99.90;;;;;;10421133;28;20075;-64
2021/12/06 08:42:13;;;;;;;47.70;19.80;;;0.10;99.90;;;;;;10420780;28;20045;-64
2021/12/06 08:47:18;;;;;;;42.30;18.35;;;0.10;99.90;;;;;;10420163;28;20049;-64
2021/12/06 08:52:23;;;;;;;35.13;17.95;;;0.10;99.90;;;;;;10420356;28;20045;-64
2021/12/06 08:57:28;;;;;;;36.17;16.38;;;0.10;99.90;;;;;;10420210;28;20050;-65
2021/12/06 09:02:33;;;;;;;40.78;17.42;;;0.10;99.90;;;;;;10420021;28;20046;-64
2021/12/06 09:07:58;;;;;;;33.10;18.08;;;0.20;99.90;;;;;;10419782;28;20049;-64
2021/12/06 09:13:05;;;;;;;38.60;16.15;;;0.30;99.90;;;;;;10419891;28;20045;-64
2021/12/06 09:18:10;;;;;;;34.72;17.45;;;0.40;99.90;;;;;;10419015;28;20115;-64
2021/12/06 09:23:16;;;;;;;33.30;16.80;;;0.50;99.90;;;;;;10418684;28;20053;-64
2021/12/06 09:28:21;;;;;;;39.05;16.02;;;0.50;99.90;;;;;;10418825;28;20096;-63
2021/12/06 09:33:27;;;;;;;35.20;16.20;;;0.40;99.90;;;;;;10418170;28;20049;-64
2021/12/06 09:38:39;;;;;;;46.33;19.13;;;0.20;99.90;;;;;;10418749;28;20092;-64
2021/12/06 09:43:44;;;;;;;42.88;18.15;;;0.20;99.90;;;;;;10418585;28;20045;-64
2021/12/06 09:48:49;;;;;;;41.63;18.98;;;0.20;99.90;;;;;;10417722;28;20105;-65
2021/12/06 09:53:57;;;;;;;46.67;18.88;;;0.20;99.90;;;;;;10418680;28;20057;-64
2021/12/06 09:59:06;;;;;;;45.15;19.73;;;0.20;99.90;;;;;;10417886;28;20382;-65
2021/12/06 10:04:13;;;;;;;45.70;19.38;;;0.30;99.90;;;;;;10417651;28;20124;-64
2021/12/06 10:09:20;;;;;;;40.95;19.55;;;0.30;99.90;;;;;;10417326;28;20046;-64
2021/12/06 10:14:25;;;;;;;39.10;19.08;;;0.50;99.90;;;;;;10417135;28;20041;-64
2021/12/06 10:19:30;;;;;;;44.10;18.83;;;0.60;99.90;;;;;;10416510;28;20049;-64
2021/12/06 10:24:35;;;;;;;40.40;19.25;;;0.70;99.90;;;;;;10416141;28;20061;-64
2021/12/06 10:29:47;;;;;;;52.33;20.70;;;0.60;99.90;;;;;;10414937;28;20410;-64
2021/12/06 10:34:56;;;;;;;46.75;20.83;;;0.50;99.90;;;;;;10417105;28;20042;-64
2021/12/06 10:40:06;;;;;;;45.95;20.83;;;0.70;99.90;;;;;;10415933;28;20091;-65
2021/12/06 10:45:44;;;;;;;;;;;0.70;99.90;;;;;;10416222;28;20053;-64
2021/12/06 10:50:51;;;;;;;39.58;17.20;;;0.70;99.90;;;;;;10365506;28;20361;-64
2021/12/06 10:55:57;;;;;;;47.60;21.50;;;0.60;99.90;;;;;;10415322;28;20413;-64
2021/12/06 11:01:07;;;;;;;50.00;19.42;;;0.60;99.90;;;;;;10415818;28;20045;-64
2021/12/06 11:06:23;;;;;;;38.28;16.55;;;0.60;99.90;;;;;;10415693;28;20041;-64
2021/12/06 11:11:35;;;;;;;49.70;19.40;;;0.50;99.90;;;;;;10415343;28;20115;-64
2021/12/06 11:16:46;;;;;;;42.78;16.05;;;0.60;99.90;;;;;;10415547;28;20041;-64
2021/12/06 11:21:59;;;;;;;39.33;16.88;;;0.80;99.90;;;;;;10414618;28;20072;-64
2021/12/06 11:27:06;;;;;;;51.53;20.52;;;0.80;99.90;;;;;;10414864;28;20410;-64
2021/12/06 11:32:12;;;;;;;45.38;18.23;;;0.90;99.90;;;;;;10414942;28;20418;-64
2021/12/06 11:37:26;;;;;;;45.28;20.33;;;0.90;99.90;;;;;;10414491;28;20172;-63
2021/12/06 11:42:32;;;;;;;45.72;20.40;;;0.80;99.90;;;;;;10421415;28;20099;-64
2021/12/06 11:47:37;;;;;;;46.22;19.38;;;0.80;99.90;;;;;;10422589;28;20120;-64
2021/12/06 11:52:48;;;;;;;33.67;16.50;;;0.60;99.90;;;;;;10422258;28;20095;-64
2021/12/06 11:57:54;;;;;;;40.20;17.75;;;0.60;99.90;;;;;;10422197;28;20053;-64
2021/12/06 12:03:00;;;;;;;39.35;16.65;;;0.60;99.90;;;;;;10421843;28;20049;-64
2021/12/06 12:08:17;;;;;;;35.67;15.52;;;0.50;99.90;;;;;;10421665;28;20556;-64
2021/12/06 12:13:26;;;;;;;46.65;17.65;;;0.40;99.90;;;;;;10422027;28;20099;-64
2021/12/06 12:18:34;;;;;;;101.00;32.60;;;0.40;99.90;;;;;;10421229;28;20049;-64
2021/12/06 12:23:39;;;;;;;74.65;29.00;;;0.30;99.90;;;;;;10420930;28;20057;-64
2021/12/06 12:29:00;;;;;;;47.15;19.52;;;0.40;99.90;;;;;;10421126;28;20108;-63
2021/12/06 12:34:10;;;;;;;35.05;16.90;;;0.40;99.90;;;;;;10420580;28;20049;-64
2021/12/06 12:39:17;;;;;;;30.10;13.73;;;0.40;99.90;;;;;;10421825;28;20045;-64
2021/12/06 12:44:23;;;;;;;30.83;15.85;;;0.40;99.90;;;;;;10421117;28;20400;-64
2021/12/06 12:49:30;;;;;;;35.97;16.20;;;0.40;99.90;;;;;;10420187;28;20482;-65
2021/12/06 12:54:35;;;;;;;29.08;13.65;;;0.40;99.90;;;;;;10420549;28;20045;-64
2021/12/06 12:59:52;;;;;;;34.83;15.05;;;0.50;99.90;;;;;;10419666;28;20045;-64
2021/12/06 13:04:57;;;;;;;33.13;17.60;;;0.50;99.90;;;;;;10419825;28;20099;-64
2021/12/06 13:10:23;;;;;;;34.00;16.42;;;0.50;99.90;;;;;;10420009;28;20103;-64
2021/12/06 13:15:45;;;;;;;52.72;21.15;;;0.50;99.90;;;;;;10418897;28;20057;-64
2021/12/06 13:20:49;;;;;;;29.10;14.35;;;0.60;99.90;;;;;;10419382;28;20045;-64
2021/12/06 13:26:10;;;;;;;41.80;21.45;;;0.60;99.90;;;;;;10401064;28;20457;-64
2021/12/06 13:31:25;;;;;;;38.00;20.02;;;0.60;99.90;;;;;;10418334;28;20096;-64
2021/12/06 13:36:50;;;;;;;48.10;23.50;;;0.40;99.90;;;;;;10418516;28;20054;-64
2021/12/06 13:41:56;;;;;;;40.30;17.70;;;0.30;99.90;;;;;;10418950;28;20042;-64
2021/12/06 13:47:18;;;;;;;27.90;13.93;;;0.30;99.90;;;;;;10417461;28;20552;-64
2021/12/06 13:52:41;;;;;;;31.58;14.90;;;0.30;99.90;;;;;;10418140;28;20045;-64
2021/12/06 13:57:49;;;;;;;50.47;22.10;;;0.20;99.90;;;;;;10417516;28;20099;-64
2021/12/06 14:03:00;;;;;;;54.17;21.33;;;0.20;99.90;;;;;;10417076;28;20099;-64
2021/12/06 14:08:06;;;;;;;48.22;19.05;;;0.00;99.90;;;;;;10416938;28;20050;-64
2021/12/06 14:13:11;;;;;;;31.15;13.75;;;0.00;99.90;;;;;;10416889;28;20103;-64
2021/12/06 14:18:17;;;;;;;33.50;14.05;;;0.00;99.90;;;;;;10416566;28;20498;-64
2021/12/06 14:23:25;;;;;;;32.38;14.77;;;-0.10;99.90;;;;;;10416150;28;20103;-64
2021/12/06 14:28:36;;;;;;;31.10;14.20;;;-0.10;99.90;;;;;;10417062;28;20080;-63
2021/12/06 14:33:41;;;;;;;33.00;14.23;;;-0.10;99.90;;;;;;10415664;28;20049;-64
2021/12/06 14:38:47;;;;;;;24.48;12.75;;;-0.20;99.90;;;;;;10415685;28;20058;-65
2021/12/06 14:43:51;;;;;;;32.95;13.38;;;-0.20;99.90;;;;;;10416101;28;20430;-64
2021/12/06 14:48:56;;;;;;;49.80;21.92;;;-0.20;99.90;;;;;;10416005;28;20107;-64
2021/12/06 14:54:12;;;;;;;35.33;18.55;;;-0.20;99.90;;;;;;10416291;28;20072;-64
2021/12/06 14:59:20;;;;;;;31.80;16.83;;;-0.30;99.90;;;;;;10415356;28;20053;-64
2021/12/06 15:04:51;;;;;;;21.77;12.82;;;-0.20;99.90;;;;;;10414847;28;20490;-64
2021/12/06 15:09:54;;;;;;;48.97;19.02;;;-0.30;99.90;;;;;;10414435;28;20050;-64
2021/12/06 15:14:59;;;;;;;41.67;18.75;;;-0.30;99.90;;;;;;10396821;28;20119;-64
2021/12/06 15:20:04;;;;;;;77.28;36.78;;;-0.40;99.90;;;;;;10414502;28;20053;-64
2021/12/06 15:25:11;;;;;;;46.75;21.13;;;-0.40;99.90;;;;;;10414375;28;20554;-64
2021/12/06 15:30:19;;;;;;;42.80;18.33;;;-0.40;99.90;;;;;;10414768;28;20049;-64
2021/12/06 15:35:34;;;;;;;41.47;16.92;;;-0.40;99.90;;;;;;10416697;28;20068;-64
2021/12/06 15:40:39;;;;;;;29.65;12.98;;;-0.30;99.90;;;;;;10414940;28;20057;-64
2021/12/06 15:45:46;;;;;;;30.95;14.15;;;-0.30;99.90;;;;;;10414765;28;20049;-64
2021/12/06 15:50:53;;;;;;;31.58;13.75;;;-0.40;99.90;;;;;;10413915;28;20046;-64
2021/12/06 15:55:59;;;;;;;31.92;14.60;;;-0.50;99.90;;;;;;10413649;28;20080;-64
2021/12/06 16:01:08;;;;;;;42.10;17.08;;;-0.50;99.90;;;;;;10414484;28;20045;-64
2021/12/06 16:06:16;;;;;;;51.72;18.70;;;-0.60;99.90;;;;;;10413856;28;20091;-64
2021/12/06 16:11:22;;;;;;;66.25;24.48;;;-0.70;99.90;;;;;;10413524;28;20045;-64
2021/12/06 16:16:27;;;;;;;33.00;16.60;;;-0.70;99.90;;;;;;10414001;28;20053;-64
2021/12/06 16:21:35;;;;;;;34.72;15.40;;;-0.70;99.90;;;;;;10414850;28;20091;-64
2021/12/06 16:26:41;;;;;;;45.47;19.80;;;-0.70;99.90;;;;;;10416100;28;20552;-64
2021/12/06 16:31:52;;;;;;;47.92;17.70;;;-0.70;99.90;;;;;;10420466;28;20046;-64
2021/12/06 16:37:04;;;;;;;30.80;13.05;;;-0.60;99.90;;;;;;10421186;28;20041;-64
2021/12/06 16:42:16;;;;;;;57.78;22.80;;;-0.60;99.90;;;;;;10421220;28;20042;-64
2021/12/06 16:47:31;;;;;;;55.75;20.33;;;-0.60;99.90;;;;;;10420239;28;20486;-64
2021/12/06 16:53:08;;;;;;;46.10;19.92;;;-0.70;99.90;;;;;;10419570;28;20410;-64
2021/12/06 16:58:18;;;;;;;50.97;18.75;;;-0.70;99.90;;;;;;10419659;28;20052;-64
2021/12/06 17:03:29;;;;;;;138.05;42.65;;;-0.70;99.90;;;;;;10419623;28;20049;-65
2021/12/06 17:08:41;;;;;;;63.35;25.45;;;-0.70;99.90;;;;;;10419717;28;20410;-65
2021/12/06 17:13:49;;;;;;;54.72;21.42;;;-0.80;99.90;;;;;;10418600;28;20115;-64
2021/12/06 17:18:54;;;;;;;79.47;26.43;;;-0.80;99.90;;;;;;10418823;28;20053;-64
2021/12/06 17:24:00;;;;;;;45.53;18.83;;;-0.80;99.90;;;;;;10418728;28;20068;-65
2021/12/06 17:29:13;;;;;;;44.58;18.33;;;-0.80;99.90;;;;;;10418949;28;20076;-64
2021/12/06 17:34:23;;;;;;;45.63;18.15;;;-0.90;99.90;;;;;;10418059;28;20053;-65
2021/12/06 17:39:30;;;;;;;61.10;20.52;;;-0.90;99.90;;;;;;10418045;28;20087;-64
2021/12/06 17:44:54;;;;;;;42.72;17.77;;;-0.90;99.90;;;;;;10417681;28;20100;-65
2021/12/06 17:49:58;;;;;;;32.38;14.73;;;-0.90;99.90;;;;;;10418913;28;20080;-64
2021/12/06 17:55:07;;;;;;;58.28;21.88;;;-0.90;99.90;;;;;;10417439;28;20127;-65
2021/12/06 18:00:13;;;;;;;28.63;13.43;;;-0.90;99.90;;;;;;10417873;28;20045;-64
2021/12/06 18:05:18;;;;;;;40.10;15.60;;;-1.00;99.90;;;;;;10417706;28;20395;-65
2021/12/06 18:10:23;;;;;;;46.97;18.08;;;-1.00;99.90;;;;;;10417027;28;20045;-64
2021/12/06 18:15:28;;;;;;;65.68;23.40;;;-0.90;99.90;;;;;;10416575;28;20122;-64
2021/12/06 18:20:33;;;;;;;68.50;24.50;;;-0.90;99.90;;;;;;10416450;28;20107;-65
2021/12/06 18:25:39;;;;;;;75.80;26.05;;;-1.00;99.90;;;;;;10416190;28;20387;-64
2021/12/06 18:30:45;;;;;;;60.70;20.48;;;-1.00;99.90;;;;;;10415917;28;20111;-64
2021/12/06 18:35:50;;;;;;;92.85;26.17;;;-1.10;99.90;;;;;;10415925;28;20049;-65
2021/12/06 18:40:59;;;;;;;71.90;23.38;;;-1.10;99.90;;;;;;10416291;28;20053;-65
2021/12/06 18:46:05;;;;;;;;;;;-1.00;99.90;;;;;;10417073;28;20042;-65
2021/12/06 18:51:11;;;;;;;65.05;21.13;;;-1.10;99.90;;;;;;10413781;28;19921;-65
2021/12/06 18:56:16;;;;;;;44.75;17.38;;;-1.10;99.90;;;;;;10449311;28;20106;-66
2021/12/06 19:01:23;;;;;;;56.97;19.83;;;-1.10;99.90;;;;;;10455934;28;20053;-66
2021/12/06 19:06:28;;;;;;;40.28;16.02;;;-1.10;99.90;;;;;;10456848;28;20468;-66
2021/12/06 19:11:33;;;;;;;42.88;18.77;;;-1.10;99.90;;;;;;10455476;28;20044;-65
2021/12/06 19:16:43;;;;;;;38.05;16.80;;;-1.20;99.90;;;;;;10456173;28;20048;-65
2021/12/06 19:21:48;;;;;;;27.40;12.98;;;-1.20;99.90;;;;;;10455875;28;20102;-66
2021/12/06 19:26:54;;;;;;;27.48;13.50;;;-1.20;99.90;;;;;;10369813;28;20164;-66
2021/12/06 19:31:59;;;;;;;27.42;11.95;;;-1.20;99.90;;;;;;10369671;28;20108;-66
2021/12/06 19:37:06;;;;;;;24.08;11.63;;;-1.20;99.90;;;;;;10369393;28;20050;-66
2021/12/06 19:42:14;;;;;;;25.27;13.07;;;-1.20;99.90;;;;;;10369619;28;20447;-66
2021/12/06 19:47:22;;;;;;;32.72;13.48;;;-1.20;99.90;;;;;;10369255;28;20147;-65
2021/12/06 19:52:27;;;;;;;31.98;13.30;;;-1.20;99.90;;;;;;10367933;28;20081;-65
2021/12/06 19:57:32;;;;;;;38.25;14.98;;;-1.40;99.90;;;;;;10403049;28;20075;-66
2021/12/06 20:02:36;;;;;;;39.22;15.13;;;-1.40;99.90;;;;;;10459010;28;20063;-67
2021/12/06 20:07:42;;;;;;;37.67;15.18;;;-1.40;99.90;;;;;;10462123;28;20099;-66
2021/12/06 20:12:47;;;;;;;32.08;14.18;;;-1.50;99.90;;;;;;10462590;28;20049;-66
2021/12/06 20:17:51;;;;;;;40.22;16.35;;;-1.50;99.90;;;;;;10445387;28;20049;-65
2021/12/06 20:22:56;;;;;;;44.38;19.27;;;-1.50;99.90;;;;;;10462844;28;20045;-65
2021/12/06 20:28:05;;;;;;;38.45;16.60;;;-1.50;99.90;;;;;;10445136;28;20099;-66
2021/12/06 20:33:09;;;;;;;40.20;19.13;;;-1.50;99.90;;;;;;10445487;28;20045;-65
2021/12/06 20:38:15;;;;;;;35.92;15.95;;;-1.50;99.90;;;;;;10412328;28;20040;-66
2021/12/06 20:43:19;;;;;;;32.33;15.18;;;-1.40;99.90;;;;;;10462516;28;20075;-66
2021/12/06 20:48:24;;;;;;;37.95;15.48;;;-1.50;99.90;;;;;;10462281;28;20056;-66
2021/12/06 20:53:29;;;;;;;39.75;15.45;;;-1.50;99.90;;;;;;10462203;28;20048;-66
2021/12/06 20:58:36;;;;;;;51.20;18.52;;;-1.50;99.90;;;;;;10460097;28;20103;-66
2021/12/06 21:03:41;;;;;;;40.15;16.45;;;-1.50;99.90;;;;;;10457830;28;20049;-65
2021/12/06 21:08:46;;;;;;;41.40;16.95;;;-1.40;99.90;;;;;;10443758;28;20041;-65
2021/12/06 21:19:17;;;;;;;47.65;20.05;;;-1.30;99.90;;;;;;10460347;28;20107;-65
2021/12/06 21:24:22;;;;;;;45.95;17.60;;;-1.40;99.90;;;;;;10460613;28;20067;-65
2021/12/06 21:29:27;;;;;;;41.85;17.42;;;-1.40;99.90;;;;;;10442303;28;20456;-65
2021/12/06 21:34:32;;;;;;;43.60;18.17;;;-1.40;99.90;;;;;;10459957;28;20448;-65
2021/12/06 21:39:38;;;;;;;41.20;17.80;;;-1.40;99.90;;;;;;10460979;28;20045;-65
2021/12/06 21:44:44;;;;;;;36.67;16.55;;;-1.40;99.90;;;;;;10454350;28;20049;-66
2021/12/06 21:49:51;;;;;;;45.85;17.20;;;-1.40;99.90;;;;;;10458825;28;20087;-65
2021/12/06 21:54:56;;;;;;;39.67;16.30;;;-1.50;99.90;;;;;;10459245;28;20371;-65
2021/12/06 22:00:01;;;;;;;31.38;13.77;;;-1.40;99.90;;;;;;10458575;28;20118;-65
2021/12/06 22:05:09;;;;;;;52.53;19.90;;;-1.40;99.90;;;;;;10458769;28;20053;-65
2021/12/06 22:10:28;;;;;;;48.45;19.73;;;-1.50;99.90;;;;;;10458814;28;20064;-66
2021/12/06 22:15:34;;;;;;;41.30;17.25;;;-1.50;99.90;;;;;;10441211;28;20045;-66
2021/12/06 22:20:39;;;;;;;34.92;15.90;;;-1.50;99.90;;;;;;10458419;28;20087;-66
2021/12/06 22:25:44;;;;;;;46.35;18.83;;;-1.40;99.90;;;;;;10458046;28;20048;-66
2021/12/06 22:30:49;;;;;;;59.10;21.77;;;-1.50;99.90;;;;;;10457104;28;20060;-66
2021/12/06 22:35:54;;;;;;;54.83;19.70;;;-1.50;99.90;;;;;;10459102;28;20103;-66
2021/12/06 22:40:59;;;;;;;54.53;18.35;;;-1.50;99.90;;;;;;10457917;28;20138;-66
2021/12/06 22:46:06;;;;;;;56.67;20.35;;;-1.60;99.90;;;;;;10457402;28;20071;-66
2021/12/06 22:51:11;;;;;;;51.67;19.13;;;-1.60;99.90;;;;;;10439811;28;20079;-66
2021/12/06 22:56:16;;;;;;;38.90;16.80;;;-1.50;99.90;;;;;;10439954;28;20087;-66
2021/12/06 23:01:23;;;;;;;38.67;17.13;;;-1.50;99.90;;;;;;10438929;28;20049;-66
2021/12/06 23:06:37;;;;;;;41.42;17.67;;;-1.50;99.90;;;;;;10456315;28;20060;-66
2021/12/06 23:11:43;;;;;;;40.63;16.70;;;-1.50;99.90;;;;;;10456762;28;20037;-66
2021/12/06 23:16:48;;;;;;;47.53;17.30;;;-1.50;99.90;;;;;;10456607;28;20098;-66
2021/12/06 23:21:53;;;;;;;45.17;17.08;;;-1.60;99.90;;;;;;10439247;28;20087;-66
2021/12/06 23:26:58;;;;;;;38.78;16.80;;;-1.60;99.90;;;;;;10455695;28;20053;-66
2021/12/06 23:32:04;;;;;;;36.10;16.48;;;-1.70;99.90;;;;;;10456843;28;20091;-66
2021/12/06 23:37:09;;;;;;;43.22;17.70;;;-1.60;99.90;;;;;;10457472;28;20448;-66
2021/12/06 23:47:21;;;;;;;38.35;16.02;;;-1.60;99.90;;;;;;10464465;28;20057;-66
2021/12/06 23:52:26;;;;;;;45.55;16.55;;;-1.70;99.90;;;;;;10460189;28;20095;-66
2021/12/06 23:57:31;;;;;;;39.88;16.25;;;-1.70;99.90;;;;;;10430898;28;20049;-66
